Catano, Puerto Rico
Current Conditions -  °F | °C
As of 10:56 AM on Monday 24 Nov 2014 (Local Time) from TJSJ Reporting Station
Scattered Clouds Scattered Clouds  
Wind Chill: 85°   Ceiling: Unl
Heat Index: 92°   Visibility: 10mi
Dew Point: 74°   Wind: 17mph
Humidity: 69%   Direction: 80°E
Pressure: 30.06"   Gusts: NA
Location:  18.44°N, 66.11°W
Report Text: TJSJ 241456Z 08015KT 10SM FEW029 SCT036 SCT045 29/23 A3006 RMK AO2 SLP178 60001 T02940233 50003
Loading
Personal Weather Stations






























Interactive Weather Map New forecast layout! Learn more

10-Day Weather Forecast

Advertisements
Track Severe Weather on mobile